sim
Sign-in with your pilot id or email,
or register
Callsign
Passwort

Schedule Details

Flight Number: OEF1281
Departure: Hong Kong International Airport (VHHH) at 07:25
Arrival: Delhi Indira Gandhi International Airport (VIDP) at 13:10

Weather Information
Getting current METAR information for VHHH 271700Z 09014KT 070V140 9999 FEW035 26/18 Q1013 NOSIG
Getting current METAR information for VIDP 271700Z 00000KT 2500 FU NSC 21/15 Q1013 NOSIG

Schedule Frequency

Route Map